createdAt,value
2022-08-03T00:01:00.254Z,17.00
2022-08-03T00:06:05.131Z,17.10
2022-08-03T00:11:08.706Z,17.10
2022-08-03T00:16:13.482Z,16.90
2022-08-03T00:21:16.705Z,16.80
2022-08-03T00:26:20.047Z,16.60
2022-08-03T00:31:44.928Z,16.60
2022-08-03T00:36:48.029Z,16.50
2022-08-03T00:41:51.371Z,16.60
2022-08-03T00:46:56.114Z,16.40
2022-08-03T00:52:00.742Z,16.40
2022-08-03T00:57:14.959Z,16.30
2022-08-03T01:02:19.969Z,16.30
2022-08-03T01:07:35.099Z,16.20
2022-08-03T01:12:44.401Z,16.20
2022-08-03T01:17:56.299Z,16.10
2022-08-03T01:23:11.375Z,16.00
2022-08-03T01:28:30.000Z,15.90
2022-08-03T01:33:38.635Z,15.90
2022-08-03T01:38:44.953Z,15.80
2022-08-03T01:44:18.104Z,15.80
2022-08-03T01:49:19.531Z,15.70
2022-08-03T01:54:25.088Z,15.70
2022-08-03T01:59:30.358Z,15.70
2022-08-03T02:04:37.319Z,15.70
2022-08-03T02:09:42.763Z,15.70
2022-08-03T02:14:48.285Z,15.60
2022-08-03T02:19:53.361Z,15.60
2022-08-03T02:24:57.058Z,15.50
2022-08-03T02:30:06.545Z,15.40
2022-08-03T02:35:16.414Z,15.40
2022-08-03T02:40:24.722Z,15.30
2022-08-03T02:45:29.887Z,15.30
2022-08-03T02:50:36.427Z,15.30
2022-08-03T02:55:43.138Z,15.30
2022-08-03T03:00:52.300Z,15.30
2022-08-03T03:05:57.981Z,15.20
2022-08-03T03:11:03.299Z,15.20
2022-08-03T03:16:08.060Z,15.10
2022-08-03T03:21:13.405Z,15.10
2022-08-03T03:26:17.965Z,15.10
2022-08-03T03:31:21.297Z,15.20
2022-08-03T03:36:26.151Z,15.20
2022-08-03T03:41:30.037Z,15.10
2022-08-03T03:46:37.259Z,15.10
2022-08-03T03:51:41.879Z,15.00
2022-08-03T03:56:45.281Z,15.00
2022-08-03T04:01:48.794Z,15.00
2022-08-03T04:07:21.611Z,14.90
2022-08-03T04:12:27.681Z,15.00
2022-08-03T04:17:31.978Z,15.00
2022-08-03T04:22:39.835Z,15.00
2022-08-03T04:27:43.667Z,15.10
2022-08-03T04:32:51.823Z,15.10
2022-08-03T04:37:58.134Z,15.20
2022-08-03T04:43:03.070Z,15.30
2022-08-03T04:48:07.141Z,15.30
2022-08-03T04:53:12.561Z,15.40
2022-08-03T04:58:19.860Z,15.60
2022-08-03T05:03:24.991Z,15.70
2022-08-03T05:08:30.007Z,15.90
2022-08-03T05:13:35.019Z,16.10
2022-08-03T05:18:38.425Z,16.20
2022-08-03T05:23:43.068Z,16.40
2022-08-03T05:28:50.970Z,16.50
2022-08-03T05:33:55.078Z,16.70
2022-08-03T05:39:02.791Z,16.90
2022-08-03T05:44:06.542Z,17.10
2022-08-03T05:49:10.815Z,17.40
2022-08-03T05:54:16.083Z,17.60
2022-08-03T05:59:37.544Z,17.80
2022-08-03T06:04:42.023Z,18.00
2022-08-03T06:10:35.229Z,18.30
2022-08-03T06:15:11.740Z,20.80
2022-08-03T06:20:18.762Z,26.00
2022-08-03T06:25:23.729Z,28.60
2022-08-03T06:30:27.419Z,31.90
2022-08-03T06:35:30.667Z,34.50
2022-08-03T06:40:42.213Z,35.90
2022-08-03T06:45:47.613Z,36.10
2022-08-03T06:50:51.257Z,36.30
2022-08-03T06:55:55.901Z,36.80
2022-08-03T07:00:59.371Z,36.70
2022-08-03T07:06:03.504Z,37.10
2022-08-03T07:11:10.147Z,37.90
2022-08-03T07:16:13.549Z,38.60
2022-08-03T07:21:17.217Z,39.10
2022-08-03T07:26:21.942Z,38.90
2022-08-03T07:36:52.414Z,37.40
2022-08-03T07:41:57.038Z,37.80
2022-08-03T07:47:03.241Z,37.30
2022-08-03T07:58:03.151Z,37.40
2022-08-03T08:03:06.588Z,37.90
2022-08-03T08:08:12.955Z,37.90
2022-08-03T08:13:17.527Z,37.50
2022-08-03T08:18:20.843Z,37.60
2022-08-03T08:23:43.645Z,40.00
2022-08-03T08:28:49.279Z,39.10
2022-08-03T08:34:07.696Z,38.90
2022-08-03T08:39:13.740Z,38.10
2022-08-03T08:44:26.674Z,38.00
2022-08-03T08:49:34.005Z,39.00
2022-08-03T08:54:41.923Z,39.70
2022-08-03T08:59:48.041Z,39.80
2022-08-03T09:04:53.388Z,37.70
2022-08-03T09:10:12.730Z,38.30
2022-08-03T09:15:23.454Z,38.40
2022-08-03T09:20:28.664Z,37.80
2022-08-03T09:25:36.080Z,37.40
2022-08-03T09:30:43.060Z,38.00
2022-08-03T09:35:57.317Z,39.00
2022-08-03T09:41:01.141Z,37.50
2022-08-03T09:46:07.817Z,38.30
2022-08-03T09:51:13.111Z,38.50
2022-08-03T09:56:35.684Z,38.70
2022-08-03T10:01:45.440Z,38.20
2022-08-03T10:07:04.674Z,38.00
2022-08-03T10:12:12.392Z,37.40
2022-08-03T10:17:17.194Z,36.60
2022-08-03T10:22:26.219Z,36.20
2022-08-03T10:27:33.661Z,35.20
2022-08-03T10:32:43.265Z,35.30
2022-08-03T10:37:56.908Z,35.20
2022-08-03T10:43:13.165Z,34.70
2022-08-03T10:48:19.616Z,34.40
2022-08-03T10:53:36.577Z,34.10
2022-08-03T10:58:57.077Z,34.20
2022-08-03T11:04:23.297Z,34.40
2022-08-03T11:09:27.139Z,34.50
2022-08-03T11:14:47.247Z,34.20
2022-08-03T11:19:57.400Z,34.50
2022-08-03T11:25:02.281Z,34.40
2022-08-03T11:30:08.163Z,34.20
2022-08-03T11:35:16.094Z,33.90
2022-08-03T11:40:38.921Z,34.00
2022-08-03T11:46:01.082Z,34.40
2022-08-03T11:51:08.601Z,34.60
2022-08-03T11:56:12.743Z,34.70
2022-08-03T12:01:22.679Z,34.60
2022-08-03T12:06:27.876Z,34.50
2022-08-03T12:11:31.445Z,34.80
2022-08-03T12:16:34.693Z,34.80
2022-08-03T12:21:56.877Z,34.50
2022-08-03T12:27:00.791Z,34.50
2022-08-03T12:32:04.473Z,34.20
2022-08-03T12:37:19.269Z,34.00
2022-08-03T12:42:32.588Z,34.30
2022-08-03T12:47:51.164Z,34.60
2022-08-03T12:52:56.727Z,34.50
2022-08-03T12:58:00.194Z,33.80
2022-08-03T13:03:39.796Z,33.70
2022-08-03T13:08:30.789Z,34.10
2022-08-03T13:13:41.271Z,34.20
2022-08-03T13:18:46.653Z,34.40
2022-08-03T13:23:52.803Z,34.00
2022-08-03T13:28:56.122Z,33.70
2022-08-03T13:33:59.779Z,33.80
2022-08-03T13:39:05.936Z,34.00
2022-08-03T13:44:29.289Z,34.30
2022-08-03T13:49:32.878Z,34.30
2022-08-03T13:54:37.507Z,34.10
2022-08-03T13:59:40.803Z,34.00
2022-08-03T14:04:44.094Z,33.70
2022-08-03T14:09:48.859Z,33.70
2022-08-03T14:14:52.180Z,33.70
2022-08-03T14:19:55.542Z,33.50
2022-08-03T14:25:02.562Z,33.60
2022-08-03T14:30:09.390Z,33.70
2022-08-03T14:35:12.647Z,33.50
2022-08-03T14:40:18.381Z,33.70
2022-08-03T14:45:21.691Z,33.60
2022-08-03T14:50:30.374Z,33.30
2022-08-03T14:55:50.748Z,33.40
2022-08-03T15:00:55.978Z,33.10
2022-08-03T15:05:59.324Z,33.10
2022-08-03T15:11:11.863Z,33.00
2022-08-03T15:16:29.940Z,33.20
2022-08-03T15:21:47.290Z,33.20
2022-08-03T15:26:52.765Z,33.10
2022-08-03T15:31:56.069Z,33.10
2022-08-03T15:36:59.445Z,33.10
2022-08-03T15:42:04.193Z,32.90
2022-08-03T15:47:07.639Z,32.70
2022-08-03T15:52:14.654Z,32.80
2022-08-03T15:57:27.765Z,32.70
2022-08-03T16:02:34.234Z,32.80
2022-08-03T16:08:02.892Z,32.80
2022-08-03T16:13:09.014Z,32.70
2022-08-03T16:18:12.458Z,32.60
2022-08-03T16:23:18.706Z,32.40
2022-08-03T16:29:23.269Z,32.40
2022-08-03T16:34:52.864Z,32.30
2022-08-03T16:39:58.197Z,32.20
2022-08-03T16:45:04.284Z,32.20
2022-08-03T16:50:14.281Z,32.10
2022-08-03T16:55:48.728Z,31.90
2022-08-03T17:00:47.613Z,31.70
2022-08-03T17:05:54.427Z,31.60
2022-08-03T17:11:08.135Z,31.40
2022-08-03T17:16:15.112Z,31.30
2022-08-03T17:21:23.943Z,31.10
2022-08-03T17:26:28.476Z,31.00
2022-08-03T17:31:49.086Z,30.80
2022-08-03T17:37:04.062Z,30.50
2022-08-03T17:42:24.095Z,30.40
2022-08-03T17:47:42.881Z,30.20
2022-08-03T17:52:50.681Z,30.10
2022-08-03T17:58:08.669Z,29.90
2022-08-03T18:03:29.151Z,29.70
2022-08-03T18:14:16.530Z,29.20
2022-08-03T18:24:50.841Z,28.80
2022-08-03T18:29:55.887Z,28.60
2022-08-03T18:35:04.644Z,28.40
2022-08-03T18:40:09.462Z,28.20
2022-08-03T18:45:57.132Z,28.00
2022-08-03T18:50:59.073Z,27.90
2022-08-03T18:56:14.449Z,27.60
2022-08-03T19:01:58.091Z,27.30
2022-08-03T19:07:03.670Z,27.00
2022-08-03T19:12:33.787Z,26.90
2022-08-03T19:17:43.579Z,26.70
2022-08-03T19:23:11.731Z,26.60
2022-08-03T19:28:20.738Z,26.30
2022-08-03T19:33:55.874Z,25.90
2022-08-03T19:39:09.037Z,25.60
2022-08-03T19:44:27.399Z,25.20
2022-08-03T19:50:01.313Z,24.80
2022-08-03T19:55:20.607Z,24.50
2022-08-03T20:00:37.073Z,24.10
2022-08-03T20:05:52.313Z,23.80
2022-08-03T20:11:07.584Z,23.60
2022-08-03T20:16:13.713Z,23.40
2022-08-03T20:21:22.213Z,23.20
2022-08-03T20:26:35.653Z,23.10
2022-08-03T20:31:44.797Z,22.90
2022-08-03T20:36:54.130Z,22.70
2022-08-03T20:42:07.649Z,22.50
2022-08-03T20:47:24.989Z,22.40
2022-08-03T20:52:28.948Z,22.30
2022-08-03T20:57:34.655Z,22.20
2022-08-03T21:02:43.853Z,22.10
2022-08-03T21:08:04.988Z,22.00
2022-08-03T21:12:56.883Z,29.40
2022-08-03T21:13:25.164Z,21.90
2022-08-03T21:18:32.044Z,21.80
2022-08-03T21:23:48.283Z,21.70
2022-08-03T21:28:56.097Z,21.60
2022-08-03T21:34:01.899Z,21.50
2022-08-03T21:39:07.589Z,21.40
2022-08-03T21:44:29.017Z,21.20
2022-08-03T21:50:05.609Z,21.20
2022-08-03T21:55:04.858Z,21.10
2022-08-03T22:00:14.704Z,21.00
2022-08-03T22:05:19.548Z,21.00
2022-08-03T22:10:45.308Z,21.10
2022-08-03T22:15:50.197Z,21.30
2022-08-03T22:20:54.785Z,21.20
2022-08-03T22:26:10.929Z,21.20
2022-08-03T22:31:30.694Z,21.00
2022-08-03T22:36:42.715Z,20.90
2022-08-03T22:41:47.052Z,20.80
2022-08-03T22:46:51.779Z,20.50
2022-08-03T22:51:55.676Z,20.40
2022-08-03T22:56:59.861Z,20.30
2022-08-03T23:02:15.007Z,20.20
2022-08-03T23:07:31.276Z,20.10
2022-08-03T23:12:36.754Z,20.10
2022-08-03T23:17:57.453Z,20.00
2022-08-03T23:23:02.265Z,19.90
2022-08-03T23:28:11.720Z,19.90
2022-08-03T23:33:17.961Z,19.80
2022-08-03T23:38:25.027Z,19.70
2022-08-03T23:43:51.653Z,19.60
2022-08-03T23:48:56.672Z,19.50
2022-08-03T23:54:08.639Z,19.40
2022-08-03T23:59:21.725Z,19.30
